NORTHERN QUEENS  -  Heat Advisory Heat Advisory     Rip Current Statement Rip Current Statement        SOUTHERN QUEENS  -  Heat Advisory Heat Advisory     Rip Current Statement Rip Current Statement        NORTHEAST SUFFOLK  -  Rip Current Statement Rip Current Statement        NORTHERN NASSAU  -  Rip Current Statement Rip Current Statement        NORTHWEST SUFFOLK  -  Rip Current Statement Rip Current Statement        SOUTHEAST SUFFOLK  -  Rip Current Statement Rip Current Statement        SOUTHERN NASSAU  -  Rip Current Statement Rip Current Statement        SOUTHWEST SUFFOLK  -  Rip Current Statement Rip Current Statement      

Active alerts

Northern Queens
  Details for Northern Queens Heat Advisory  +1 additional alert
Southern Queens
  Details for Southern Queens Heat Advisory  +1 additional alert
Northern Nassau
  Details for Northern Nassau Rip Current Statement
Southern Nassau
  Details for Southern Nassau Rip Current Statement
Northwest Suffolk
  Details for Northwest Suffolk Rip Current Statement
Southwest Suffolk
  Details for Southwest Suffolk Rip Current Statement
Northeast Suffolk
  Details for Northeast Suffolk Rip Current Statement
Southeast Suffolk
  Details for Southeast Suffolk Rip Current Statement


WXM80 ListenWXM80 Stop

You find our weather info also at:

UK Metoffice

WeatherCloud

Weather Underground

Northeastern Weather Network

AWEKAS

Citizen Weather Observer Program (CWOP)

HAMweather, WeatherForYou, PWS Weather


Weather Underground History page Text

Daily Summary for December 30, 2017 Units:  English    Metric   Both
« Previous Day
Next Day »
Daily Weekly Monthly Yearly Custom
  High: Low: Average:
Temperature: 23.1 °F 17.3 °F 20.7 °F
Dew Point: 19.8 °F 8.0 °F 14.6 °F
Humidity: 87 % 63 % 77 %
Wind Speed: 8.9 mph 0.0 mph 2.3 mph
Wind Gust: 16.1 mph - -
Wind:- - WSW
Pressure: 30.23 in 29.90 in -
Precipitation: 0.01 in    
Historical Graphs
 
 
Tabular Data for December 30, 2017
Time Temperature Dew Point Pressure Wind Wind Speed Wind Gust Humidity Rainfall Rate (Hourly)
00:04 18.1 °F 8.0 °F 30.23 in WSW 3.6 mph 3.6 mph 64 % 0.00 in
00:06 18.1 °F 8.0 °F 30.23 in West 1.6 mph 5.8 mph 64 % 0.00 in
00:11 18.1 °F 8.0 °F 30.23 in West 4.2 mph 6.0 mph 64 % 0.00 in
00:14 18.1 °F 8.0 °F 30.23 in SW 4.7 mph 10.0 mph 64 % 0.00 in
00:19 18.1 °F 8.3 °F 30.23 in WNW 2.6 mph 4.6 mph 65 % 0.00 in
00:20 18.1 °F 8.3 °F 30.23 in WNW 3.9 mph 6.9 mph 65 % 0.00 in
00:25 18.2 °F 8.4 °F 30.23 in WNW 2.5 mph 7.0 mph 65 % 0.00 in
00:30 18.2 °F 8.4 °F 30.22 in West 2.9 mph 5.8 mph 65 % 0.00 in
00:31 18.2 °F 8.4 °F 30.22 in NW 6.5 mph 11.5 mph 65 % 0.00 in
00:35 18.3 °F 8.5 °F 30.22 in WNW 4.0 mph 8.1 mph 65 % 0.00 in
00:37 18.3 °F 8.5 °F 30.22 in WNW 4.0 mph 5.8 mph 65 % 0.00 in
00:38 18.3 °F 8.8 °F 30.22 in NW 3.8 mph 4.0 mph 66 % 0.00 in
00:43 18.4 °F 8.6 °F 30.21 in WSW 4.8 mph 10.4 mph 65 % 0.00 in
00:45 18.4 °F 8.6 °F 30.21 in NW 2.6 mph 8.1 mph 65 % 0.00 in
00:49 18.4 °F 8.6 °F 30.21 in West 5.8 mph 11.5 mph 65 % 0.00 in
00:54 18.5 °F 8.3 °F 30.21 in West 3.1 mph 6.9 mph 64 % 0.00 in
00:55 18.5 °F 8.3 °F 30.21 in NW 4.3 mph 8.1 mph 64 % 0.00 in
00:59 18.6 °F 8.8 °F 30.21 in WNW 1.4 mph 6.9 mph 65 % 0.00 in
01:00 18.6 °F 8.8 °F 30.21 in West 2.2 mph 6.0 mph 65 % 0.00 in
01:05 18.6 °F 8.8 °F 30.21 in WNW 5.1 mph 8.1 mph 65 % 0.00 in
01:06 18.6 °F 8.8 °F 30.21 in West 5.0 mph 8.1 mph 65 % 0.00 in
01:11 18.7 °F 8.9 °F 30.22 in WNW 2.5 mph 5.8 mph 65 % 0.00 in
01:16 18.7 °F 8.9 °F 30.22 in WSW 3.8 mph 9.2 mph 65 % 0.00 in
01:21 18.8 °F 8.6 °F 30.21 in WSW 7.4 mph 10.4 mph 64 % 0.00 in
01:26 18.8 °F 8.3 °F 30.21 in West 3.3 mph 10.4 mph 63 % 0.00 in
01:28 18.8 °F 8.3 °F 30.21 in WNW 2.6 mph 5.8 mph 63 % 0.00 in
01:33 18.8 °F 8.6 °F 30.21 in WNW 3.0 mph 8.1 mph 64 % 0.00 in
01:36 18.8 °F 8.6 °F 30.21 in WNW 3.3 mph 5.8 mph 64 % 0.00 in
01:40 18.8 °F 9.0 °F 30.21 in West 5.6 mph 10.0 mph 65 % 0.00 in
01:41 18.8 °F 8.6 °F 30.20 in NW 7.5 mph 10.4 mph 64 % 0.00 in
01:46 18.8 °F 8.6 °F 30.20 in WNW 5.5 mph 9.2 mph 64 % 0.00 in
01:49 18.8 °F 8.6 °F 30.20 in NW 4.7 mph 8.1 mph 64 % 0.00 in
01:54 18.8 °F 9.0 °F 30.20 in West 5.0 mph 6.9 mph 65 % 0.00 in
01:56 18.8 °F 9.0 °F 30.20 in West 5.0 mph 5.0 mph 65 % 0.00 in
02:01 18.8 °F 8.6 °F 30.20 in NW 2.7 mph 6.9 mph 64 % 0.00 in
02:03 18.8 °F 8.3 °F 30.20 in SW 2.5 mph 5.8 mph 63 % 0.00 in
02:08 18.8 °F 8.6 °F 30.19 in WSW 2.7 mph 5.8 mph 64 % 0.00 in
02:10 18.8 °F 8.6 °F 30.19 in WNW 2.7 mph 4.6 mph 64 % 0.00 in
02:13 18.8 °F 8.6 °F 30.19 in WNW 1.4 mph 4.6 mph 64 % 0.00 in
02:17 18.8 °F 8.6 °F 30.19 in WNW 3.0 mph 5.8 mph 64 % 0.00 in
02:20 18.8 °F 8.6 °F 30.19 in WNW 1.3 mph 3.5 mph 64 % 0.00 in
02:22 18.8 °F 8.6 °F 30.19 in WNW 0.8 mph 3.5 mph 64 % 0.00 in
02:27 18.8 °F 8.6 °F 30.19 in WSW 1.8 mph 3.5 mph 64 % 0.00 in
02:33 18.8 °F 8.6 °F 30.19 in WSW 2.3 mph 5.8 mph 64 % 0.00 in
02:34 18.8 °F 8.6 °F 30.20 in West 4.1 mph 5.8 mph 64 % 0.00 in
02:37 18.8 °F 8.6 °F 30.20 in NW 1.2 mph 3.5 mph 64 % 0.00 in
02:40 18.8 °F 8.6 °F 30.20 in SW 3.5 mph 6.0 mph 64 % 0.00 in
02:45 18.8 °F 8.6 °F 30.20 in WSW 4.0 mph 5.8 mph 64 % 0.00 in
02:49 18.8 °F 8.6 °F 30.20 in WSW 3.5 mph 4.6 mph 64 % 0.00 in
02:54 18.8 °F 8.3 °F 30.19 in WNW 3.4 mph 5.8 mph 63 % 0.00 in
02:59 18.8 °F 8.3 °F 30.20 in West 2.9 mph 4.6 mph 63 % 0.00 in
03:01 18.8 °F 8.3 °F 30.19 in West 3.7 mph 3.7 mph 63 % 0.00 in
03:04 18.8 °F 8.3 °F 30.19 in WSW 2.4 mph 3.5 mph 63 % 0.00 in
03:09 18.8 °F 8.3 °F 30.19 in West 1.1 mph 3.5 mph 63 % 0.00 in
03:10 18.8 °F 8.3 °F 30.19 in West 1.2 mph 3.5 mph 63 % 0.00 in
03:15 18.7 °F 8.5 °F 30.19 in West 1.7 mph 3.5 mph 64 % 0.00 in
03:16 18.8 °F 8.6 °F 30.19 in West 1.2 mph 3.5 mph 64 % 0.00 in
03:21 18.7 °F 8.5 °F 30.19 in West 1.1 mph 3.5 mph 64 % 0.00 in
03:23 18.7 °F 8.5 °F 30.19 in WNW 1.4 mph 6.9 mph 64 % 0.00 in
03:28 18.7 °F 8.5 °F 30.18 in West 1.7 mph 3.5 mph 64 % 0.00 in
03:31 18.7 °F 8.5 °F 30.19 in WSW 1.1 mph 3.5 mph 64 % 0.00 in
03:36 18.6 °F 8.8 °F 30.19 in WSW 3.2 mph 4.6 mph 65 % 0.00 in
03:38 18.7 °F 8.9 °F 30.18 in West 2.6 mph 4.6 mph 65 % 0.00 in
03:43 18.7 °F 8.9 °F 30.18 in West 1.6 mph 3.0 mph 65 % 0.00 in
03:46 18.6 °F 9.1 °F 30.18 in West 0.6 mph 3.5 mph 66 % 0.00 in
03:50 18.7 °F 9.2 °F 30.19 in WSW 2.8 mph 5.0 mph 66 % 0.00 in
03:54 18.6 °F 9.1 °F 30.18 in West 2.6 mph 3.5 mph 66 % 0.00 in
03:56 18.6 °F 9.1 °F 30.18 in WSW 1.8 mph 3.5 mph 66 % 0.00 in
04:01 18.6 °F 9.1 °F 30.18 in WSW 1.8 mph 4.0 mph 66 % 0.00 in
04:02 18.6 °F 9.1 °F 30.18 in West 2.3 mph 4.0 mph 66 % 0.00 in
04:03 18.6 °F 9.1 °F 30.18 in WSW 2.7 mph 4.0 mph 66 % 0.00 in
04:08 18.6 °F 9.1 °F 30.18 in West 0.7 mph 2.3 mph 66 % 0.00 in
04:09 18.6 °F 9.1 °F 30.18 in West 1.0 mph 3.0 mph 66 % 0.00 in
04:12 18.5 °F 9.0 °F 30.17 in West 1.9 mph 3.5 mph 66 % 0.00 in
04:15 18.6 °F 9.1 °F 30.17 in WSW 0.8 mph 2.3 mph 66 % 0.00 in
04:20 18.6 °F 8.8 °F 30.17 in WSW 1.7 mph 3.5 mph 65 % 0.00 in
04:23 18.6 °F 8.8 °F 30.17 in West 1.1 mph 2.3 mph 65 % 0.00 in
04:28 18.6 °F 8.8 °F 30.16 in WSW 0.4 mph 1.2 mph 65 % 0.00 in
04:32 18.6 °F 8.8 °F 30.16 in WSW 1.6 mph 3.5 mph 65 % 0.00 in
04:38 18.6 °F 8.4 °F 30.16 in SW 1.0 mph 2.0 mph 64 % 0.00 in
04:42 18.6 °F 8.8 °F 30.16 in WSW 1.4 mph 2.3 mph 65 % 0.00 in
04:43 18.6 °F 8.8 °F 30.16 in WSW 1.4 mph 2.3 mph 65 % 0.00 in
04:48 18.5 °F 8.3 °F 30.16 in Calm     64 % 0.00 in
04:49 18.5 °F 8.3 °F 30.16 in WSW 1.2 mph 3.5 mph 64 % 0.00 in
04:54 18.5 °F 8.7 °F 30.16 in WSW 0.3 mph 2.3 mph 65 % 0.00 in
04:55 18.5 °F 8.7 °F 30.16 in Calm   2.3 mph 65 % 0.00 in
05:00 18.5 °F 9.0 °F 30.16 in WSW 0.3 mph 2.3 mph 66 % 0.00 in
05:05 18.4 °F 9.3 °F 30.15 in Calm   1.0 mph 67 % 0.00 in
05:08 18.4 °F 9.3 °F 30.16 in WSW 0.8 mph 1.2 mph 67 % 0.00 in
05:12 18.3 °F 9.2 °F 30.15 in Calm     67 % 0.00 in
05:13 18.2 °F 9.1 °F 30.15 in Calm     67 % 0.00 in
05:18 18.2 °F 9.1 °F 30.15 in Calm   1.2 mph 67 % 0.00 in
05:21 18.1 °F 9.3 °F 30.15 in Calm     68 % 0.00 in
05:26 18.0 °F 9.5 °F 30.16 in Calm     69 % 0.00 in
05:31 17.8 °F 9.3 °F 30.15 in Calm   1.0 mph 69 % 0.00 in
05:36 17.8 °F 9.3 °F 30.15 in Calm     69 % 0.00 in
05:41 17.7 °F 9.2 °F 30.15 in WSW 0.7 mph 2.3 mph 69 % 0.00 in
05:42 17.6 °F 9.2 °F 30.14 in WSW 0.7 mph 2.0 mph 69 % 0.00 in
05:43 17.6 °F 9.2 °F 30.15 in WSW 0.3 mph 2.3 mph 69 % 0.00 in
05:48 17.5 °F 9.4 °F 30.15 in WSW 1.1 mph 2.3 mph 70 % 0.00 in
05:50 17.5 °F 9.4 °F 30.15 in WSW 0.7 mph 2.3 mph 70 % 0.00 in
05:55 17.5 °F 9.4 °F 30.14 in WSW 0.7 mph 2.3 mph 70 % 0.00 in
06:00 17.4 °F 9.3 °F 30.14 in WSW 0.2 mph 2.3 mph 70 % 0.00 in
06:01 17.4 °F 9.3 °F 30.14 in WSW 0.2 mph 1.2 mph 70 % 0.00 in
06:06 17.4 °F 9.3 °F 30.14 in WSW 0.8 mph 2.3 mph 70 % 0.00 in
06:12 17.4 °F 9.3 °F 30.14 in Calm   2.3 mph 70 % 0.00 in
06:18 17.3 °F 9.2 °F 30.15 in WSW 1.1 mph 2.3 mph 70 % 0.00 in
06:19 17.4 °F 9.6 °F 30.15 in WSW 1.1 mph 2.3 mph 71 % 0.00 in
06:24 17.3 °F 9.5 °F 30.15 in WSW 0.8 mph 1.2 mph 71 % 0.00 in
06:29 17.4 °F 9.6 °F 30.15 in WSW 0.9 mph 2.3 mph 71 % 0.00 in
06:34 17.4 °F 9.6 °F 30.15 in Calm   2.3 mph 71 % 0.00 in
06:35 17.4 °F 9.6 °F 30.15 in Calm     71 % 0.00 in
06:39 17.4 °F 9.6 °F 30.14 in Calm     71 % 0.00 in
06:42 17.4 °F 9.6 °F 30.15 in Calm   1.2 mph 71 % 0.00 in
06:48 17.5 °F 9.7 °F 30.15 in Calm     71 % 0.00 in
06:53 17.5 °F 9.7 °F 30.15 in Calm     71 % 0.00 in
06:58 17.5 °F 9.7 °F 30.15 in Calm     71 % 0.00 in
06:59 17.6 °F 9.8 °F 30.15 in Calm     71 % 0.00 in
07:04 17.6 °F 9.8 °F 30.14 in Calm     71 % 0.00 in
07:06 17.6 °F 9.8 °F 30.14 in Calm     71 % 0.00 in
07:11 17.7 °F 9.9 °F 30.15 in Calm     71 % 0.00 in
07:16 17.7 °F 9.9 °F 30.15 in Calm     71 % 0.00 in
07:21 17.8 °F 10.3 °F 30.14 in Calm     72 % 0.00 in
07:26 17.9 °F 10.1 °F 30.14 in WSW 0.2 mph 1.2 mph 71 % 0.00 in
07:31 18.0 °F 10.2 °F 30.14 in Calm     71 % 0.00 in
07:32 18.0 °F 10.2 °F 30.15 in WSW 0.1 mph 1.2 mph 71 % 0.00 in
07:37 18.1 °F 10.3 °F 30.15 in Calm     71 % 0.00 in
07:42 18.2 °F 10.4 °F 30.15 in SW 0.1 mph 2.3 mph 71 % 0.00 in
07:47 18.3 °F 10.5 °F 30.15 in SSW 0.1 mph 2.3 mph 71 % 0.00 in
07:52 18.5 °F 10.7 °F 30.14 in SSW 0.1 mph 2.3 mph 71 % 0.00 in
07:55 18.5 °F 10.7 °F 30.14 in SSW 0.9 mph 1.2 mph 71 % 0.00 in
07:57 18.6 °F 10.8 °F 30.15 in Calm   1.2 mph 71 % 0.00 in
07:59 18.6 °F 10.8 °F 30.14 in Calm   1.2 mph 71 % 0.00 in
08:03 18.8 °F 11.3 °F 30.14 in SSW 0.8 mph 2.3 mph 72 % 0.00 in
08:06 18.8 °F 11.3 °F 30.14 in Calm   2.3 mph 72 % 0.00 in
08:10 18.9 °F 11.4 °F 30.14 in SSW 0.2 mph 2.0 mph 72 % 0.00 in
08:15 19.0 °F 11.8 °F 30.14 in SSW 0.2 mph 2.3 mph 73 % 0.00 in
08:20 19.1 °F 11.9 °F 30.15 in SSW 0.3 mph 3.5 mph 73 % 0.00 in
08:23 19.1 °F 11.9 °F 30.14 in SSW 0.9 mph 3.5 mph 73 % 0.00 in
08:28 19.2 °F 12.3 °F 30.14 in Calm     74 % 0.00 in
08:29 19.2 °F 12.3 °F 30.14 in Calm     74 % 0.00 in
08:30 19.3 °F 12.4 °F 30.14 in Calm     74 % 0.00 in
08:36 19.3 °F 12.4 °F 30.13 in SSW 0.7 mph 1.2 mph 74 % 0.00 in
08:40 19.4 °F 12.5 °F 30.13 in Calm   1.2 mph 74 % 0.00 in
08:45 19.4 °F 12.5 °F 30.13 in Calm   1.2 mph 74 % 0.00 in
08:48 19.4 °F 12.8 °F 30.13 in SSW 0.1 mph 2.3 mph 75 % 0.00 in
08:53 19.4 °F 12.8 °F 30.13 in Calm   1.2 mph 75 % 0.00 in
08:56 19.4 °F 13.1 °F 30.13 in Calm   2.3 mph 76 % 0.00 in
09:01 19.5 °F 13.5 °F 30.13 in Calm     77 % 0.00 in
09:02 19.5 °F 13.5 °F 30.13 in Calm     77 % 0.00 in
09:05 19.5 °F 13.5 °F 30.13 in Calm     77 % 0.00 in
09:10 19.5 °F 13.8 °F 30.13 in SSW 0.7 mph 2.3 mph 78 % 0.00 in
09:13 19.6 °F 14.1 °F 30.13 in SSW 0.2 mph 2.3 mph 79 % 0.00 in
09:18 19.6 °F 14.1 °F 30.13 in SSW 0.8 mph 2.3 mph 79 % 0.00 in
09:19 19.6 °F 14.1 °F 30.13 in SSW 1.0 mph 2.3 mph 79 % 0.00 in
09:24 19.7 °F 14.5 °F 30.12 in SSW 1.2 mph 2.3 mph 80 % 0.00 in
09:28 19.7 °F 14.5 °F 30.12 in South 2.5 mph 3.5 mph 80 % 0.00 in
09:33 19.8 °F 14.9 °F 30.11 in South 1.0 mph 3.5 mph 81 % 0.00 in
09:37 19.8 °F 14.9 °F 30.11 in SSE 1.9 mph 6.0 mph 81 % 0.00 in
09:41 19.7 °F 14.8 °F 30.11 in SSE 1.3 mph 3.5 mph 81 % 0.00 in
09:43 19.7 °F 14.8 °F 30.12 in SSE 0.4 mph 1.2 mph 81 % 0.00 in
09:48 19.7 °F 14.8 °F 30.11 in Calm   3.5 mph 81 % 0.00 in
09:50 19.7 °F 14.8 °F 30.11 in Calm     81 % 0.00 in
09:51 19.7 °F 14.8 °F 30.11 in SSE 0.9 mph 1.2 mph 81 % 0.00 in
09:57 19.8 °F 14.9 °F 30.10 in South 0.9 mph 4.0 mph 81 % 0.00 in
10:02 19.8 °F 14.9 °F 30.10 in Calm     81 % 0.00 in
10:05 19.8 °F 14.9 °F 30.10 in Calm     81 % 0.00 in
10:10 19.9 °F 15.3 °F 30.10 in South 0.1 mph 1.2 mph 82 % 0.00 in
10:11 19.9 °F 15.3 °F 30.10 in Calm   1.2 mph 82 % 0.00 in
10:16 19.9 °F 15.3 °F 30.10 in Calm     82 % 0.00 in
10:18 20.0 °F 15.4 °F 30.10 in Calm     82 % 0.00 in
10:23 20.0 °F 15.4 °F 30.09 in South 0.4 mph 2.3 mph 82 % 0.00 in
10:25 20.1 °F 15.5 °F 30.09 in South 0.2 mph 3.5 mph 82 % 0.00 in
10:30 20.1 °F 15.5 °F 30.09 in SSW 0.2 mph 2.3 mph 82 % 0.00 in
10:35 20.2 °F 15.6 °F 30.08 in Calm     82 % 0.00 in
10:40 20.3 °F 16.0 °F 30.08 in SW 0.1 mph 1.2 mph 83 % 0.00 in
10:41 20.4 °F 16.1 °F 30.08 in SW 0.2 mph 1.0 mph 83 % 0.00 in
10:46 20.4 °F 16.1 °F 30.08 in SW 0.5 mph 2.0 mph 83 % 0.00 in
10:49 20.4 °F 16.1 °F 30.08 in SW 0.7 mph 2.3 mph 83 % 0.00 in
10:54 20.5 °F 16.2 °F 30.07 in South 0.1 mph 1.2 mph 83 % 0.00 in
10:59 20.6 °F 16.5 °F 30.06 in SSW 2.3 mph 3.5 mph 84 % 0.00 in
11:04 20.7 °F 16.6 °F 30.06 in SSW 1.0 mph 4.6 mph 84 % 0.00 in
11:09 20.8 °F 16.7 °F 30.06 in Calm     84 % 0.00 in
11:11 20.8 °F 16.7 °F 30.05 in Calm   2.3 mph 84 % 0.00 in
11:14 20.8 °F 16.7 °F 30.05 in SW 1.4 mph 3.5 mph 84 % 0.00 in
11:17 20.9 °F 17.1 °F 30.05 in SW 1.0 mph 3.5 mph 85 % 0.00 in
11:22 21.0 °F 17.2 °F 30.05 in SW 2.7 mph 4.0 mph 85 % 0.00 in
11:24 21.0 °F 17.2 °F 30.05 in Calm   2.3 mph 85 % 0.00 in
11:29 21.1 °F 17.3 °F 30.04 in SW 0.6 mph 2.3 mph 85 % 0.00 in
11:31 21.1 °F 17.3 °F 30.04 in SW 1.8 mph 3.5 mph 85 % 0.00 in
11:32 21.1 °F 17.3 °F 30.05 in SW 0.8 mph 3.5 mph 85 % 0.00 in
11:37 21.1 °F 17.3 °F 30.04 in SSW 1.3 mph 2.3 mph 85 % 0.00 in
11:41 21.2 °F 17.4 °F 30.04 in Calm   3.0 mph 85 % 0.00 in
11:46 21.3 °F 17.8 °F 30.03 in SW 0.7 mph 1.2 mph 86 % 0.00 in
11:51 21.3 °F 17.8 °F 30.03 in SW 1.0 mph 4.0 mph 86 % 0.00 in
11:56 21.3 °F 17.8 °F 30.03 in WSW 1.0 mph 4.0 mph 86 % 0.00 in
11:59 21.3 °F 17.8 °F 30.02 in SW 2.3 mph 4.0 mph 86 % 0.00 in
12:04 21.4 °F 17.9 °F 30.02 in WSW 1.4 mph 3.5 mph 86 % 0.00 in
12:09 21.4 °F 17.9 °F 30.01 in WSW 3.4 mph 3.5 mph 86 % 0.00 in
12:14 21.5 °F 18.0 °F 30.01 in SSW 1.2 mph 4.6 mph 86 % 0.00 in
12:19 21.5 °F 18.0 °F 30.01 in WSW 0.8 mph 2.3 mph 86 % 0.00 in
12:24 21.6 °F 18.1 °F 30.00 in WSW 1.4 mph 3.5 mph 86 % 0.00 in
12:27 21.6 °F 18.1 °F 30.00 in SW 1.2 mph 3.5 mph 86 % 0.00 in
12:32 21.7 °F 18.4 °F 29.99 in SW 0.2 mph 1.0 mph 87 % 0.00 in
12:35 21.7 °F 18.4 °F 29.99 in SW 0.1 mph 1.2 mph 87 % 0.00 in
12:40 21.8 °F 18.5 °F 29.99 in WSW 1.6 mph 3.5 mph 87 % 0.00 in
12:41 21.8 °F 18.5 °F 29.98 in WSW 0.4 mph 3.5 mph 87 % 0.00 in
12:46 21.8 °F 18.5 °F 29.98 in WSW 2.3 mph 3.5 mph 87 % 0.00 in
12:48 21.8 °F 18.5 °F 29.98 in WSW 0.4 mph 2.3 mph 87 % 0.00 in
12:53 21.9 °F 18.6 °F 29.97 in WSW 0.5 mph 2.0 mph 87 % 0.00 in
12:54 21.9 °F 18.6 °F 29.97 in WSW 0.9 mph 2.3 mph 87 % 0.00 in
12:59 22.0 °F 18.7 °F 29.96 in SW 0.8 mph 2.3 mph 87 % 0.00 in
13:03 22.0 °F 18.7 °F 29.96 in SW 0.7 mph 3.0 mph 87 % 0.00 in
13:08 22.0 °F 18.7 °F 29.96 in SW 1.7 mph 3.5 mph 87 % 0.00 in
13:11 22.1 °F 18.8 °F 29.96 in SW 0.9 mph 2.3 mph 87 % 0.00 in
13:13 22.1 °F 18.8 °F 29.95 in SW 0.1 mph 1.2 mph 87 % 0.01 in
13:18 22.1 °F 18.8 °F 29.95 in SW 2.4 mph 4.0 mph 87 % 0.01 in
13:23 22.1 °F 18.6 °F 29.95 in SW 0.5 mph 2.0 mph 86 % 0.01 in
13:26 22.1 °F 18.6 °F 29.95 in SW 1.4 mph 3.5 mph 86 % 0.01 in
13:31 22.2 °F 18.9 °F 29.94 in SW 0.3 mph 2.0 mph 87 % 0.01 in
13:36 22.2 °F 18.9 °F 29.94 in WSW 1.0 mph 3.5 mph 87 % 0.01 in
13:41 22.3 °F 19.0 °F 29.94 in SW 0.3 mph 2.3 mph 87 % 0.01 in
13:47 22.3 °F 18.7 °F 29.94 in Calm   1.2 mph 86 % 0.01 in
13:51 22.4 °F 18.8 °F 29.94 in SW 0.6 mph 3.0 mph 86 % 0.01 in
13:52 22.4 °F 18.8 °F 29.94 in SW 0.9 mph 3.5 mph 86 % 0.01 in
13:58 22.4 °F 18.8 °F 29.93 in SSW 1.6 mph 2.3 mph 86 % 0.01 in
13:59 22.4 °F 18.8 °F 29.93 in SW 1.8 mph 3.5 mph 86 % 0.01 in
14:04 22.4 °F 18.8 °F 29.93 in SW 0.1 mph   86 % 0.01 in
14:05 22.4 °F 18.8 °F 29.93 in SW 1.0 mph 3.0 mph 86 % 0.01 in
14:10 22.5 °F 18.9 °F 29.93 in SSW 0.7 mph 1.2 mph 86 % 0.01 in
14:15 22.5 °F 18.9 °F 29.93 in SSW 1.2 mph 3.5 mph 86 % 0.00 in
14:16 22.6 °F 19.0 °F 29.93 in SSW 1.5 mph 3.0 mph 86 % 0.00 in
14:19 22.6 °F 19.0 °F 29.93 in Calm   3.5 mph 86 % 0.00 in
14:22 22.6 °F 19.0 °F 29.92 in Calm     86 % 0.00 in
14:27 22.7 °F 19.1 °F 29.92 in SSW 1.0 mph 3.5 mph 86 % 0.00 in
14:28 22.7 °F 19.1 °F 29.92 in SSW 2.0 mph 3.5 mph 86 % 0.00 in
14:31 22.7 °F 19.1 °F 29.92 in SSW 1.0 mph 3.0 mph 86 % 0.00 in
14:36 22.7 °F 19.1 °F 29.92 in SW 0.7 mph 3.5 mph 86 % 0.00 in
14:39 22.8 °F 19.2 °F 29.92 in SW 0.4 mph 2.3 mph 86 % 0.00 in
14:44 22.8 °F 19.2 °F 29.91 in SW 1.7 mph 3.5 mph 86 % 0.00 in
14:48 22.9 °F 19.3 °F 29.92 in SW 0.3 mph 1.0 mph 86 % 0.00 in
14:53 22.9 °F 19.3 °F 29.92 in SSW 1.4 mph 2.3 mph 86 % 0.00 in
14:55 22.9 °F 19.3 °F 29.92 in SSW 0.2 mph 2.3 mph 86 % 0.00 in
14:59 22.9 °F 19.3 °F 29.91 in SW 1.6 mph 3.5 mph 86 % 0.00 in
15:00 22.9 °F 19.3 °F 29.91 in SW 0.6 mph 2.3 mph 86 % 0.00 in
15:05 23.0 °F 19.4 °F 29.91 in Calm     86 % 0.00 in
15:06 23.0 °F 19.4 °F 29.91 in SW 0.3 mph 1.2 mph 86 % 0.00 in
15:09 23.0 °F 19.4 °F 29.91 in Calm     86 % 0.00 in
15:14 23.0 °F 19.4 °F 29.91 in WSW 1.2 mph 3.5 mph 86 % 0.00 in
15:19 23.0 °F 19.4 °F 29.91 in WSW 0.6 mph 1.2 mph 86 % 0.00 in
15:24 23.1 °F 19.8 °F 29.91 in WSW 0.2 mph 2.3 mph 87 % 0.00 in
15:25 23.1 °F 19.8 °F 29.91 in WSW 0.2 mph 1.2 mph 87 % 0.00 in
15:30 23.1 °F 19.8 °F 29.91 in Calm   1.2 mph 87 % 0.00 in
15:35 23.1 °F 19.8 °F 29.90 in WSW 1.5 mph 3.5 mph 87 % 0.00 in
15:40 23.1 °F 19.5 °F 29.91 in Calm   1.2 mph 86 % 0.00 in
15:45 23.1 °F 19.5 °F 29.91 in Calm   1.2 mph 86 % 0.00 in
15:47 23.1 °F 19.5 °F 29.92 in WSW 0.9 mph 3.5 mph 86 % 0.00 in
15:52 23.1 °F 19.8 °F 29.91 in Calm   2.3 mph 87 % 0.00 in
15:57 23.1 °F 19.8 °F 29.91 in SW 0.1 mph 1.0 mph 87 % 0.00 in
15:58 23.1 °F 19.8 °F 29.91 in SW 0.3 mph 1.0 mph 87 % 0.00 in
16:03 23.0 °F 19.7 °F 29.90 in Calm   1.2 mph 87 % 0.00 in
16:04 23.0 °F 19.7 °F 29.91 in SW 0.2 mph 1.0 mph 87 % 0.00 in
16:05 23.0 °F 19.7 °F 29.91 in SW 0.3 mph 1.0 mph 87 % 0.00 in
16:10 23.0 °F 19.7 °F 29.91 in Calm     87 % 0.00 in
16:14 23.0 °F 19.7 °F 29.91 in SSW 1.4 mph 3.5 mph 87 % 0.00 in
16:16 23.0 °F 19.7 °F 29.91 in SSW 0.5 mph 1.2 mph 87 % 0.00 in
16:22 23.0 °F 19.7 °F 29.91 in SW 2.4 mph 3.5 mph 87 % 0.00 in
16:27 23.0 °F 19.7 °F 29.91 in SW 0.3 mph 3.5 mph 87 % 0.00 in
16:30 23.0 °F 19.7 °F 29.91 in Calm   4.6 mph 87 % 0.00 in
16:35 23.0 °F 19.7 °F 29.92 in West 1.7 mph 3.0 mph 87 % 0.00 in
16:36 23.0 °F 19.7 °F 29.91 in West 0.4 mph 3.5 mph 87 % 0.00 in
16:41 23.0 °F 19.7 °F 29.92 in WSW 1.4 mph 2.3 mph 87 % 0.00 in
16:46 23.0 °F 19.7 °F 29.92 in WNW 2.5 mph 5.8 mph 87 % 0.00 in
16:49 22.9 °F 19.6 °F 29.92 in WNW 4.7 mph 8.0 mph 87 % 0.00 in
16:55 22.9 °F 19.3 °F 29.92 in West 4.0 mph 6.9 mph 86 % 0.00 in
17:00 22.9 °F 19.1 °F 29.92 in WSW 2.4 mph 4.6 mph 85 % 0.00 in
17:03 22.8 °F 19.0 °F 29.92 in NW 2.7 mph 8.1 mph 85 % 0.00 in
17:08 22.8 °F 18.7 °F 29.93 in WNW 2.3 mph 6.9 mph 84 % 0.00 in
17:13 22.7 °F 18.6 °F 29.93 in NW 3.4 mph 7.0 mph 84 % 0.00 in
17:21 22.6 °F 18.2 °F 29.93 in WSW 3.5 mph 5.8 mph 83 % 0.00 in
17:23 22.6 °F 18.2 °F 29.93 in SW 4.4 mph 7.0 mph 83 % 0.00 in
17:28 22.5 °F 18.1 °F 29.94 in WSW 2.7 mph 6.9 mph 83 % 0.00 in
17:30 22.5 °F 17.8 °F 29.93 in West 3.3 mph 6.9 mph 82 % 0.00 in
17:35 22.5 °F 18.1 °F 29.93 in WSW 4.3 mph 5.0 mph 83 % 0.00 in
17:37 22.5 °F 17.8 °F 29.94 in WNW 3.0 mph 7.0 mph 82 % 0.00 in
17:41 22.4 °F 17.7 °F 29.94 in WSW 4.4 mph 9.2 mph 82 % 0.00 in
17:43 22.4 °F 17.7 °F 29.94 in West 3.2 mph 4.6 mph 82 % 0.00 in
17:49 22.4 °F 18.0 °F 29.94 in West 5.0 mph 9.2 mph 83 % 0.00 in
17:50 22.4 °F 18.0 °F 29.94 in WNW 4.7 mph 9.2 mph 83 % 0.00 in
17:55 22.5 °F 18.1 °F 29.94 in WSW 1.1 mph 3.5 mph 83 % 0.00 in
17:56 22.5 °F 18.1 °F 29.94 in West 2.0 mph 12.0 mph 83 % 0.00 in
18:01 22.5 °F 18.1 °F 29.94 in West 3.0 mph 12.7 mph 83 % 0.00 in
18:02 22.5 °F 18.1 °F 29.94 in NW 3.8 mph 10.4 mph 83 % 0.00 in
18:03 22.5 °F 18.1 °F 29.94 in West 3.3 mph 10.4 mph 83 % 0.00 in
18:08 22.6 °F 18.2 °F 29.95 in West 4.5 mph 7.0 mph 83 % 0.00 in
18:10 22.6 °F 18.2 °F 29.95 in WSW 4.0 mph 6.9 mph 83 % 0.00 in
18:11 22.6 °F 18.2 °F 29.95 in WSW 1.2 mph 5.8 mph 83 % 0.00 in
18:16 22.6 °F 18.2 °F 29.95 in West 4.6 mph 9.2 mph 83 % 0.00 in
18:17 22.6 °F 18.2 °F 29.95 in NW 4.6 mph 9.2 mph 83 % 0.00 in
18:22 22.6 °F 17.9 °F 29.94 in SW 3.1 mph 9.2 mph 82 % 0.00 in
18:24 22.6 °F 17.9 °F 29.94 in West 5.7 mph 8.1 mph 82 % 0.00 in
18:29 22.6 °F 17.9 °F 29.94 in West 4.4 mph 7.0 mph 82 % 0.00 in
18:30 22.6 °F 17.9 °F 29.95 in West 4.6 mph 8.1 mph 82 % 0.00 in
18:32 22.6 °F 17.9 °F 29.94 in NW 4.4 mph 12.0 mph 82 % 0.00 in
18:37 22.6 °F 17.9 °F 29.95 in NW 3.0 mph 6.9 mph 82 % 0.00 in
18:38 22.6 °F 17.9 °F 29.95 in WSW 1.5 mph 7.0 mph 82 % 0.00 in
18:43 22.5 °F 17.8 °F 29.95 in West 6.7 mph 10.4 mph 82 % 0.00 in
18:45 22.5 °F 17.8 °F 29.95 in West 6.6 mph 12.0 mph 82 % 0.00 in
18:50 22.5 °F 17.8 °F 29.95 in WSW 3.1 mph 4.6 mph 82 % 0.00 in
18:51 22.5 °F 17.8 °F 29.95 in Calm   3.5 mph 82 % 0.00 in
18:53 22.5 °F 17.8 °F 29.95 in West 3.6 mph 6.9 mph 82 % 0.00 in
18:58 22.4 °F 17.7 °F 29.96 in West 2.3 mph 5.8 mph 82 % 0.00 in
18:59 22.4 °F 17.7 °F 29.95 in WSW 2.7 mph 6.0 mph 82 % 0.00 in
19:04 22.4 °F 17.5 °F 29.96 in WSW 7.4 mph 12.7 mph 81 % 0.00 in
19:08 22.3 °F 17.6 °F 29.96 in WNW 6.1 mph 11.5 mph 82 % 0.00 in
19:13 22.3 °F 17.4 °F 29.95 in WSW 3.6 mph 8.1 mph 81 % 0.00 in
19:14 22.2 °F 17.3 °F 29.95 in West 3.0 mph 4.6 mph 81 % 0.00 in
19:19 22.2 °F 17.3 °F 29.95 in NW 5.2 mph 9.2 mph 81 % 0.00 in
19:20 22.2 °F 17.3 °F 29.96 in WNW 3.0 mph 4.6 mph 81 % 0.00 in
19:25 22.2 °F 17.5 °F 29.96 in West 4.0 mph 9.2 mph 82 % 0.00 in
19:28 22.2 °F 17.5 °F 29.95 in WSW 2.4 mph 8.1 mph 82 % 0.00 in
19:33 22.2 °F 17.3 °F 29.95 in WSW 3.1 mph 4.6 mph 81 % 0.00 in
19:34 22.2 °F 17.3 °F 29.96 in NW 4.6 mph 10.4 mph 81 % 0.00 in
19:38 22.2 °F 17.3 °F 29.96 in West 5.7 mph 9.2 mph 81 % 0.00 in
19:42 22.2 °F 17.3 °F 29.96 in West 4.5 mph 10.4 mph 81 % 0.00 in
19:44 22.2 °F 17.3 °F 29.96 in WSW 4.0 mph 9.2 mph 81 % 0.00 in
19:49 22.2 °F 17.3 °F 29.96 in WSW 5.9 mph 10.4 mph 81 % 0.00 in
19:54 22.3 °F 17.4 °F 29.96 in West 4.9 mph 7.0 mph 81 % 0.00 in
19:56 22.3 °F 17.4 °F 29.96 in West 5.7 mph 8.1 mph 81 % 0.00 in
20:01 22.3 °F 17.4 °F 29.96 in WNW 4.8 mph 9.2 mph 81 % 0.00 in
20:04 22.4 °F 17.2 °F 29.96 in WNW 3.6 mph 11.5 mph 80 % 0.00 in
20:05 22.4 °F 17.2 °F 29.96 in WNW 3.0 mph 11.5 mph 80 % 0.00 in
20:10 22.4 °F 17.2 °F 29.96 in West 4.2 mph 15.0 mph 80 % 0.00 in
20:15 22.4 °F 17.2 °F 29.96 in West 3.2 mph 6.9 mph 80 % 0.00 in
20:20 22.5 °F 17.3 °F 29.97 in West 5.0 mph 6.9 mph 80 % 0.00 in
20:21 22.5 °F 17.3 °F 29.97 in West 5.0 mph 6.9 mph 80 % 0.00 in
20:24 22.5 °F 17.3 °F 29.97 in WSW 6.8 mph 11.5 mph 80 % 0.00 in
20:29 22.6 °F 17.4 °F 29.97 in West 5.2 mph 9.2 mph 80 % 0.00 in
20:31 22.6 °F 17.4 °F 29.97 in NW 7.0 mph 12.7 mph 80 % 0.00 in
20:34 22.6 °F 17.4 °F 29.97 in West 4.6 mph 10.0 mph 80 % 0.00 in
20:39 22.6 °F 17.4 °F 29.97 in WSW 3.9 mph 9.2 mph 80 % 0.00 in
20:44 22.7 °F 17.5 °F 29.97 in WSW 7.9 mph 11.5 mph 80 % 0.00 in
20:49 22.8 °F 17.6 °F 29.98 in SW 6.7 mph 11.5 mph 80 % 0.00 in
20:51 22.8 °F 17.6 °F 29.98 in West 6.0 mph 16.0 mph 80 % 0.00 in
20:56 22.9 °F 17.7 °F 29.97 in WSW 6.0 mph 15.0 mph 80 % 0.00 in
20:57 22.9 °F 17.7 °F 29.98 in West 5.8 mph 11.5 mph 80 % 0.00 in
21:02 22.9 °F 17.7 °F 29.98 in WSW 3.4 mph 10.4 mph 80 % 0.00 in
21:05 22.9 °F 17.7 °F 29.98 in West 5.8 mph 11.5 mph 80 % 0.00 in
21:08 22.9 °F 17.7 °F 29.98 in West 7.5 mph 9.2 mph 80 % 0.00 in
21:13 22.9 °F 17.7 °F 29.98 in West 4.4 mph 7.0 mph 80 % 0.00 in
21:17 22.9 °F 17.7 °F 29.98 in West 6.2 mph 11.0 mph 80 % 0.00 in
21:22 22.9 °F 17.7 °F 29.98 in WSW 6.3 mph 10.0 mph 80 % 0.00 in
21:25 22.9 °F 17.7 °F 29.98 in NW 7.9 mph 13.0 mph 80 % 0.00 in
21:26 22.9 °F 17.7 °F 29.98 in WSW 6.8 mph 10.4 mph 80 % 0.00 in
21:30 22.9 °F 17.4 °F 29.99 in WSW 4.9 mph 13.8 mph 79 % 0.00 in
21:35 22.9 °F 17.4 °F 29.99 in West 6.0 mph 10.0 mph 79 % 0.00 in
21:40 22.9 °F 17.4 °F 29.99 in WSW 3.3 mph 9.2 mph 79 % 0.00 in
21:45 22.8 °F 17.3 °F 29.99 in WSW 3.2 mph 6.9 mph 79 % 0.00 in
21:49 22.8 °F 17.3 °F 29.99 in WSW 3.0 mph 8.1 mph 79 % 0.00 in
21:54 22.9 °F 17.7 °F 29.99 in WSW 5.6 mph 10.4 mph 80 % 0.00 in
21:59 22.9 °F 17.4 °F 29.99 in WSW 6.9 mph 10.4 mph 79 % 0.00 in
22:04 22.9 °F 17.4 °F 30.00 in NW 3.9 mph 10.4 mph 79 % 0.00 in
22:09 22.9 °F 17.7 °F 30.00 in West 5.8 mph 6.9 mph 80 % 0.00 in
22:14 22.9 °F 17.7 °F 30.00 in West 5.1 mph 11.5 mph 80 % 0.00 in
22:19 22.9 °F 17.7 °F 30.00 in SW 4.5 mph 16.1 mph 80 % 0.00 in
22:25 23.0 °F 17.7 °F 30.00 in WSW 2.4 mph 6.9 mph 80 % 0.00 in
22:29 23.0 °F 17.7 °F 30.00 in NW 6.3 mph 6.9 mph 80 % 0.00 in
22:31 23.0 °F 17.7 °F 30.00 in West 5.6 mph 12.7 mph 80 % 0.00 in
22:36 22.9 °F 17.7 °F 30.00 in WNW 6.6 mph 10.4 mph 80 % 0.00 in
22:39 22.9 °F 17.7 °F 30.00 in West 6.5 mph 12.7 mph 80 % 0.00 in
22:41 22.9 °F 17.7 °F 30.00 in WSW 6.0 mph 10.4 mph 80 % 0.00 in
22:46 22.9 °F 17.7 °F 30.00 in WSW 5.0 mph 10.4 mph 80 % 0.00 in
22:48 22.8 °F 17.6 °F 30.00 in WSW 3.2 mph 6.9 mph 80 % 0.00 in
22:53 22.8 °F 17.6 °F 30.00 in WSW 7.5 mph 11.5 mph 80 % 0.00 in
22:54 22.9 °F 17.7 °F 30.00 in WSW 5.1 mph 11.5 mph 80 % 0.00 in
22:59 22.9 °F 17.7 °F 30.00 in WSW 6.1 mph 11.5 mph 80 % 0.00 in
23:04 22.9 °F 17.7 °F 30.00 in WSW 6.1 mph 13.8 mph 80 % 0.00 in
23:08 22.9 °F 17.7 °F 30.00 in NW 3.4 mph 6.0 mph 80 % 0.00 in
23:13 22.9 °F 17.7 °F 30.01 in West 5.0 mph 10.4 mph 80 % 0.00 in
23:15 22.9 °F 17.7 °F 30.00 in West 5.4 mph 15.0 mph 80 % 0.00 in
23:16 22.9 °F 17.7 °F 30.00 in West 6.0 mph 15.0 mph 80 % 0.00 in
23:21 22.9 °F 17.9 °F 30.01 in WSW 5.9 mph 12.7 mph 81 % 0.00 in
23:26 22.8 °F 17.8 °F 30.01 in WNW 4.6 mph 11.0 mph 81 % 0.00 in
23:28 22.8 °F 17.8 °F 30.01 in West 5.3 mph 8.1 mph 81 % 0.00 in
23:29 22.7 °F 17.7 °F 30.01 in WNW 5.2 mph 9.2 mph 81 % 0.00 in
23:34 22.7 °F 17.7 °F 30.01 in WNW 4.1 mph 9.2 mph 81 % 0.00 in
23:35 22.7 °F 17.7 °F 30.01 in WNW 7.6 mph 11.5 mph 81 % 0.00 in
23:40 22.7 °F 17.7 °F 30.00 in WSW 4.0 mph 8.0 mph 81 % 0.00 in
23:45 22.6 °F 17.6 °F 30.01 in NW 4.2 mph 5.8 mph 81 % 0.00 in
23:49 22.6 °F 17.6 °F 30.01 in WSW 5.1 mph 12.0 mph 81 % 0.00 in
23:50 22.6 °F 17.6 °F 30.01 in WSW 8.9 mph 15.0 mph 81 % 0.00 in
23:56 22.6 °F 17.4 °F 30.01 in WNW 7.0 mph 13.0 mph 80 % 0.00 in
23:57 22.6 °F 17.1 °F 30.01 in NW 7.0 mph 12.7 mph 79 % 0.00 in
Crab Meadow Weather
Compliments of Weather Underground - 3.5 mb

Script developed by  Jim McMurry - jmcmurry@mwt.net Adapted for the template by  Wim van der Kuil - Leuven-Template.eu

Astronomy: One year on Pluto is equal to 248 Earth years.